METAR AND TAF INFORMATION
METAR FOR OIAW
ADDS - METARS form results

(1037 UTC 22 April 2018)
Data provider http://aviationweather.gov/adds/metars/
 
METAR text: OIAW 221030Z 15010KT 7000 NSC 37/M06 Q1004
Conditions at: OIAW (AHWAZ , IR) observed 1030 UTC 22 April 2018
Temperature: 37.0°C (99°F)
Dewpoint: -6.0°C (21°F) [RH = 6%]
Pressure (altimeter): 29.65 inches Hg (1004.0 mb)
Winds: from the SSE (150 degrees) at 12 MPH (10 knots; 5.2 m/s)
Visibility: 4 miles (7 km)
Ceiling: at least 12,000 feet AGL
Clouds: sky clear below 12,000 feet AGL
Weather: no significant weather observed at this time

METAR text: OIAW 221020Z 15010KT 7000 NSC 37/M06 Q1004
Conditions at: OIAW (AHWAZ , IR) observed 1020 UTC 22 April 2018
Temperature: 37.0°C (99°F)
Dewpoint: -6.0°C (21°F) [RH = 6%]
Pressure (altimeter): 29.65 inches Hg (1004.0 mb)
Winds: from the SSE (150 degrees) at 12 MPH (10 knots; 5.2 m/s)
Visibility: 4 miles (7 km)
Ceiling: at least 12,000 feet AGL
Clouds: sky clear below 12,000 feet AGL
Weather: no significant weather observed at this time

METAR text: OIAW 221000Z 12006KT 7000 NSC 36/M03 Q1004
Conditions at: OIAW (AHWAZ , IR) observed 1000 UTC 22 April 2018
Temperature: 36.0°C (97°F)
Dewpoint: -3.0°C (27°F) [RH = 8%]
Pressure (altimeter): 29.65 inches Hg (1004.0 mb)
Winds: from the ESE (120 degrees) at 7 MPH (6 knots; 3.1 m/s)
Visibility: 4 miles (7 km)
Ceiling: at least 12,000 feet AGL
Clouds: sky clear below 12,000 feet AGL
Weather: no significant weather observed at this time

METAR text: OIAW 220951Z 12006KT 7000 NSC 36/M03 Q1004
Conditions at: OIAW (AHWAZ , IR) observed 0951 UTC 22 April 2018
Temperature: 36.0°C (97°F)
Dewpoint: -3.0°C (27°F) [RH = 8%]
Pressure (altimeter): 29.65 inches Hg (1004.0 mb)
Winds: from the ESE (120 degrees) at 7 MPH (6 knots; 3.1 m/s)
Visibility: 4 miles (7 km)
Ceiling: at least 12,000 feet AGL
Clouds: sky clear below 12,000 feet AGL
Weather: no significant weather observed at this time

Forecast for: OIAW (AHWAZ , IR)
Text: TAF OIAW 220530Z 2206/2312 08005MPS 6000 SCT040 BKN100
Forecast period: 0600 to 1000 UTC 22 April 2018
Forecast type: FROM: standard forecast or significant change
Winds: from the E (80 degrees) at 12 MPH (10 knots; 5.2 m/s)
Visibility: 4 miles (6 km)
Ceiling: 10000 feet AGL
Clouds: scattered clouds at 4000 feet AGL
broken clouds at 10000 feet AGL
Weather: no significant weather forecast for this period
Forecast for: OIAW (AHWAZ , IR)
Text: TAF OIAW 220530Z 2206/2312 08005MPS 6000 SCT040 BKN100
Forecast period: 0600 to 1000 UTC 22 April 2018
Forecast type: FROM: standard forecast or significant change
Winds: from the E (80 degrees) at 12 MPH (10 knots; 5.2 m/s)
Visibility: 4 miles (6 km)
Ceiling: 10000 feet AGL
Clouds: scattered clouds at 4000 feet AGL
broken clouds at 10000 feet AGL
Weather: no significant weather forecast for this period
Forecast for: OIAW (AHWAZ , IR)
Text: TAF OIAW 220530Z 2206/2312 08005MPS 6000 SCT040 BKN100
Forecast period: 1000 to 2100 UTC 22 April 2018
Forecast type: BECOMING: Conditions expected to become as follows by 1200 UTC 22 April 2018
Winds: from the SE (140 degrees) at 18 MPH (16 knots; 8.3 m/s)
Visibility: 4 miles (6 km)
Ceiling: 10000 feet AGL
Clouds: scattered clouds at 4000 feet AGL
broken clouds at 10000 feet AGL
Weather: no significant weather forecast for this period
Forecast for: OIAW (AHWAZ , IR)
Text: TAF OIAW 220530Z 2206/2312 08005MPS 6000 SCT040 BKN100
Forecast period: 1000 to 2100 UTC 22 April 2018
Forecast type: BECOMING: Conditions expected to become as follows by 1200 UTC 22 April 2018
Winds: from the SE (140 degrees) at 18 MPH (16 knots; 8.3 m/s)
Visibility: 4 miles (6 km)
Ceiling: 10000 feet AGL
Clouds: scattered clouds at 4000 feet AGL
broken clouds at 10000 feet AGL
Weather: no significant weather forecast for this period
Forecast for: OIAW (AHWAZ , IR)
Text: TAF OIAW 220530Z 2206/2312 08005MPS 6000 SCT040 BKN100
Forecast period: 1200 to 1800 UTC 22 April 2018
Forecast type: TEMPORARY: The following changes expected for less than half the time period
Winds: from the SE (140 degrees) at 20 MPH (17 knots; 8.8 m/s)
gusting to 31 MPH (27 knots; 14.0 m/s)
Visibility: 1.24 miles (2.00 km)
Ceiling: 10000 feet AGL
Clouds: few clouds at 3500 feet AGL
scattered clouds at 4000 feet AGL
broken clouds at 10000 feet AGL
Weather: SA DU  (sand, widespread dust)
Forecast for: OIAW (AHWAZ , IR)
Text: TAF OIAW 220530Z 2206/2312 08005MPS 6000 SCT040 BKN100
Forecast period: 1200 to 1800 UTC 22 April 2018
Forecast type: TEMPORARY: The following changes expected for less than half the time period
Winds: from the SE (140 degrees) at 20 MPH (17 knots; 8.8 m/s)
gusting to 31 MPH (27 knots; 14.0 m/s)
Visibility: 1.24 miles (2.00 km)
Ceiling: 10000 feet AGL
Clouds: few clouds at 3500 feet AGL
scattered clouds at 4000 feet AGL
broken clouds at 10000 feet AGL
Weather: SA DU  (sand, widespread dust)
Forecast for: OIAW (AHWAZ , IR)
Text: TAF OIAW 220530Z 2206/2312 08005MPS 6000 SCT040 BKN100
Forecast period: 0600 UTC 22 April 2018 to 1200 UTC 23 April 2018
Forecast type: PROBABLE: 30 percent likelihood of the following during this time
Weather: TS  (thunderstorm)
Forecast for: OIAW (AHWAZ , IR)
Text: TAF OIAW 220530Z 2206/2312 08005MPS 6000 SCT040 BKN100
Forecast period: 0600 UTC 22 April 2018 to 1200 UTC 23 April 2018
Forecast type: PROBABLE: 30 percent likelihood of the following during this time
Weather: TS  (thunderstorm)
Forecast for: OIAW (AHWAZ , IR)
Text: TAF OIAW 220530Z 2206/2312 08005MPS 6000 SCT040 BKN100
Forecast period: 2100 UTC 22 April 2018 to 1000 UTC 23 April 2018
Forecast type: BECOMING: Conditions expected to become as follows by 2300 UTC 22 April 2018
Winds: from the SE (140 degrees) at 18 MPH (16 knots; 8.3 m/s)
Visibility: 1.86 miles (2.99 km)
Ceiling: 9000 feet AGL
Clouds: few clouds at 3000 feet AGL
scattered clouds at 3500 feet AGL
broken clouds at 9000 feet AGL
Weather: BR RA  (mist, rain)
Forecast for: OIAW (AHWAZ , IR)
Text: TAF OIAW 220530Z 2206/2312 08005MPS 6000 SCT040 BKN100
Forecast period: 2100 UTC 22 April 2018 to 1000 UTC 23 April 2018
Forecast type: BECOMING: Conditions expected to become as follows by 2300 UTC 22 April 2018
Winds: from the SE (140 degrees) at 18 MPH (16 knots; 8.3 m/s)
Visibility: 1.86 miles (2.99 km)
Ceiling: 9000 feet AGL
Clouds: few clouds at 3000 feet AGL
scattered clouds at 3500 feet AGL
broken clouds at 9000 feet AGL
Weather: BR RA  (mist, rain)
Forecast for: OIAW (AHWAZ , IR)
Text: TAF OIAW 220530Z 2206/2312 08005MPS 6000 SCT040 BKN100
Forecast period: 0600 to 1000 UTC 23 April 2018
Forecast type: TEMPORARY: The following changes expected for less than half the time period
Winds: from the SE (140 degrees) at 18 MPH (16 knots; 8.3 m/s)
gusting to 31 MPH (27 knots; 14.0 m/s)
Visibility: 2.49 miles (4.01 km)
Ceiling: 8000 feet AGL
Clouds: scattered clouds at 3000 feet AGL
scattered clouds at 3500 feet AGL
overcast cloud deck at 8000 feet AGL
Weather: TSRA SA  (rain associated with thunderstorm(s), sand)
Forecast for: OIAW (AHWAZ , IR)
Text: TAF OIAW 220530Z 2206/2312 08005MPS 6000 SCT040 BKN100
Forecast period: 0600 to 1000 UTC 23 April 2018
Forecast type: TEMPORARY: The following changes expected for less than half the time period
Winds: from the SE (140 degrees) at 18 MPH (16 knots; 8.3 m/s)
gusting to 31 MPH (27 knots; 14.0 m/s)
Visibility: 2.49 miles (4.01 km)
Ceiling: 8000 feet AGL
Clouds: scattered clouds at 3000 feet AGL
scattered clouds at 3500 feet AGL
overcast cloud deck at 8000 feet AGL
Weather: TSRA SA  (rain associated with thunderstorm(s), sand)
Forecast for: OIAW (AHWAZ , IR)
Text: TAF OIAW 220530Z 2206/2312 08005MPS 6000 SCT040 BKN100
Forecast period: 1000 to 1200 UTC 23 April 2018
Forecast type: BECOMING: Conditions expected to become as follows by 1200 UTC 23 April 2018
Winds: from the WNW (300 degrees) at 12 MPH (10 knots; 5.2 m/s)
Visibility: 4 miles (7 km)
Clouds: few clouds at 4000 feet AGL
scattered clouds at 10000 feet AGL
Weather: BR RA  (mist, rain)
Forecast for: OIAW (AHWAZ , IR)
Text: TAF OIAW 220530Z 2206/2312 08005MPS 6000 SCT040 BKN100
Forecast period: 1000 to 1200 UTC 23 April 2018
Forecast type: BECOMING: Conditions expected to become as follows by 1200 UTC 23 April 2018
Winds: from the WNW (300 degrees) at 12 MPH (10 knots; 5.2 m/s)
Visibility: 4 miles (7 km)
Clouds: few clouds at 4000 feet AGL
scattered clouds at 10000 feet AGL
Weather: BR RA  (mist, rain)

 AIRPORT MAP

 RUNWAY INFORMATION
Runway 12 Runway length 11149 ft Runway width 148 ft
Runway elevation 66 ft Runway displaced threshold 0 ft Runway heading 124
Runway 30 Runway length 11149 ft Runway width 148 ft
Runway elevation 59 ft Runway displaced threshold 0 ft Runway heading 304

 AIRPORT FREQUENCIES
Type ATIS Name ATIS Frequency 126.4 MHZ
Type TWR Name TWR Frequency 121.1 MHZ

 AIRPORT NEAR NAVIGATION AIDS
Type VOR-DME Name Ahwaz Frequency 114000 KHZ
Type NDB Name Ahwaz Frequency 415 KHZ



Copyright @ Iran Aseman Virtual Airline